Aviation Digital Data Service (ADDS)

Output produced by METARs form (0345 UTC 23 November 2017)
found at http://www.aviationweather.gov/adds/metars/
 
VQPR 230330Z 04003KT 9999 SCT040 10/01 Q1023